Time;durP1;ratioP1;P1;durP2;ratioP2;P2;SDS_P1;SDS_P2;PMS_P1;PMS_P2;Temp;Humidity;BMP_temperature;BMP_pressure;BME280_temperature;BME280_humidity;BME280_pressure;Samples;Min_cycle;Max_cycle;Signal;HPM_P1;HPM_P2
2022/04/08 00:04:27;;;;;;;3.67;1.25;;;;;;;9.13;45.32;98323.13;10226317;28;20479;-61
2022/04/08 00:09:28;;;;;;;4.90;1.63;;;;;;;9.09;45.86;98319.13;10231807;28;20109;-62
2022/04/08 00:14:32;;;;;;;6.13;1.20;;;;;;;9.08;45.93;98344.00;10233152;28;20094;-62
2022/04/08 00:19:36;;;;;;;3.80;1.02;;;;;;;9.07;45.84;98344.16;10231447;28;20079;-64
2022/04/08 00:24:38;;;;;;;5.13;1.05;;;;;;;9.12;45.96;98350.66;10238403;28;20141;-63
2022/04/08 00:29:39;;;;;;;4.82;1.13;;;;;;;9.06;46.45;98353.94;10240557;28;20310;-63
2022/04/08 00:34:41;;;;;;;7.30;2.17;;;;;;;8.98;46.33;98356.59;10238791;28;20051;-62
2022/04/08 00:39:42;;;;;;;7.45;1.17;;;;;;;8.97;46.75;98362.88;10240372;28;20646;-63
2022/04/08 00:44:43;;;;;;;5.53;1.38;;;;;;;9.00;46.81;98383.78;10236481;28;20058;-62
2022/04/08 00:49:45;;;;;;;4.72;0.82;;;;;;;8.95;47.59;98386.09;10241431;28;20134;-60
2022/04/08 00:54:48;;;;;;;6.72;1.17;;;;;;;9.03;47.43;98383.47;10241213;28;20150;-61
2022/04/08 00:59:51;;;;;;;4.00;1.00;;;;;;;9.02;47.61;98398.56;10230625;28;20130;-61
2022/04/08 01:04:52;;;;;;;4.72;1.13;;;;;;;9.08;47.58;98410.34;10248757;28;20066;-60
2022/04/08 01:09:54;;;;;;;6.80;1.30;;;;;;;9.00;47.64;98421.75;10241217;28;20054;-62
2022/04/08 01:14:59;;;;;;;6.82;0.98;;;;;;;9.10;47.71;98434.94;10234188;28;20082;-62
2022/04/08 01:20:01;;;;;;;4.47;1.05;;;;;;;9.04;47.99;98438.22;10232825;28;20126;-63
2022/04/08 01:25:03;;;;;;;4.85;1.52;;;;;;;9.18;48.46;98480.09;10236582;28;20065;-63
2022/04/08 01:30:12;;;;;;;2.75;0.57;;;;;;;8.73;54.15;98481.13;10231394;28;20190;-62
2022/04/08 01:35:13;;;;;;;1.48;0.40;;;;;;;8.49;57.27;98500.34;10233171;28;20605;-61
2022/04/08 01:40:15;;;;;;;4.13;0.50;;;;;;;8.00;59.10;98490.13;10234229;28;20062;-61
2022/04/08 01:45:16;;;;;;;2.50;0.30;;;;;;;7.97;59.96;98516.88;10234299;28;20054;-62
2022/04/08 01:50:20;;;;;;;0.90;0.30;;;;;;;7.76;60.48;98502.13;10230973;28;20713;-62
2022/04/08 01:55:22;;;;;;;1.55;0.40;;;;;;;7.92;60.54;98513.88;10230048;28;20051;-62
2022/04/08 02:00:23;;;;;;;2.05;0.47;;;;;;;8.16;59.50;98515.09;10232406;28;20051;-62
2022/04/08 02:05:24;;;;;;;2.40;0.50;;;;;;;7.87;61.26;98516.13;10229971;28;20681;-61
2022/04/08 02:10:26;;;;;;;1.70;0.40;;;;;;;7.81;61.96;98522.84;10231017;28;20073;-62
2022/04/08 02:15:33;;;;;;;1.90;0.30;;;;;;;7.41;62.89;98516.91;10229080;28;20054;-62
2022/04/08 02:20:35;;;;;;;3.20;0.43;;;;;;;7.76;62.14;98535.69;10230938;28;20150;-62
2022/04/08 02:25:36;;;;;;;2.30;0.43;;;;;;;7.66;62.50;98534.94;10233692;28;20454;-61
2022/04/08 02:30:38;;;;;;;3.15;0.50;;;;;;;7.67;63.00;98571.88;10234213;28;20095;-61
2022/04/08 02:35:39;;;;;;;2.10;0.40;;;;;;;7.71;63.71;98597.06;10231485;28;20039;-62
2022/04/08 02:40:40;;;;;;;1.63;0.40;;;;;;;7.51;66.87;98569.81;10228372;28;20064;-62
2022/04/08 02:45:42;;;;;;;0.73;0.10;;;;;;;7.42;68.25;98584.75;10227098;28;20058;-62
2022/04/08 02:50:43;;;;;;;1.73;0.50;;;;;;;7.25;68.47;98586.34;10227868;28;20059;-62
2022/04/08 02:55:45;;;;;;;1.25;0.25;;;;;;;7.53;67.44;98588.22;10229329;28;20067;-62
2022/04/08 03:00:46;;;;;;;1.92;0.40;;;;;;;7.46;67.07;98581.81;10229003;28;20059;-63
2022/04/08 03:05:47;;;;;;;0.88;0.35;;;;;;;7.58;68.33;98600.06;10226771;28;20054;-62
2022/04/08 03:10:49;;;;;;;1.25;0.17;;;;;;;7.37;67.93;98608.19;10228797;28;20138;-61
2022/04/08 03:15:52;;;;;;;1.20;0.63;;;;;;;7.14;69.92;98614.78;10235553;28;20053;-62
2022/04/08 03:20:54;;;;;;;1.88;0.30;;;;;;;7.08;70.29;98613.53;10233246;28;20054;-63
2022/04/08 03:25:55;;;;;;;1.40;0.60;;;;;;;6.95;70.50;98627.06;10247214;28;20043;-63
2022/04/08 03:30:56;;;;;;;0.90;0.30;;;;;;;7.14;69.16;98620.06;10228668;28;20179;-63
2022/04/08 03:35:58;;;;;;;1.67;0.75;;;;;;;7.26;68.49;98608.34;10225424;28;20050;-62
2022/04/08 03:40:59;;;;;;;1.17;0.40;;;;;;;7.13;68.53;98610.47;10228408;28;20465;-62
2022/04/08 03:46:01;;;;;;;1.70;0.80;;;;;;;7.21;68.08;98589.44;10227154;28;20055;-62
2022/04/08 03:51:02;;;;;;;1.23;0.50;;;;;;;7.27;67.49;98607.38;10226400;28;20047;-62
2022/04/08 03:56:07;;;;;;;1.40;0.52;;;;;;;7.51;65.79;98606.91;10234644;28;20422;-62
2022/04/08 04:01:08;;;;;;;1.77;0.30;;;;;;;7.54;65.30;98621.66;10238014;28;20150;-62
2022/04/08 04:06:10;;;;;;;0.93;0.47;;;;;;;7.63;64.89;98615.50;10236298;28;20196;-61
2022/04/08 04:11:15;;;;;;;0.90;0.50;;;;;;;7.47;65.78;98615.28;10238652;28;20208;-63
2022/04/08 04:16:16;;;;;;;1.52;0.60;;;;;;;7.65;65.30;98637.38;10234658;28;20055;-62
2022/04/08 04:21:18;;;;;;;0.70;0.40;;;;;;;7.50;65.63;98625.56;10237242;28;20065;-62
2022/04/08 04:26:19;;;;;;;2.45;0.43;;;;;;;7.31;67.11;98637.88;10234405;28;20161;-62
2022/04/08 04:31:20;;;;;;;1.15;0.30;;;;;;;7.34;65.66;98647.34;10237317;28;20051;-62
2022/04/08 04:36:22;;;;;;;2.35;0.30;;;;;;;7.52;65.50;98665.97;10233728;28;20043;-62
2022/04/08 04:41:23;;;;;;;1.42;0.55;;;;;;;7.16;66.17;98645.44;10240868;28;20142;-62
2022/04/08 04:46:24;;;;;;;1.15;0.40;;;;;;;7.61;65.47;98686.28;10238810;28;20559;-63
2022/04/08 04:51:30;;;;;;;2.60;0.98;;;;;;;7.67;65.04;98675.16;10241643;28;20764;-63
2022/04/08 04:56:31;;;;;;;0.95;0.50;;;;;;;7.95;64.57;98699.03;10210581;28;20120;-62
2022/04/08 05:01:33;;;;;;;1.42;0.68;;;;;;;7.95;64.72;98693.72;10213581;28;20051;-61
2022/04/08 05:06:34;;;;;;;1.00;0.57;;;;;;;8.04;64.09;98713.22;10212621;28;20525;-64
2022/04/08 05:11:36;;;;;;;1.70;0.65;;;;;;;8.03;63.74;98712.41;10212248;28;20055;-63
2022/04/08 05:16:37;;;;;;;2.75;0.63;;;;;;;7.93;63.69;98716.91;10213509;28;20097;-61
2022/04/08 05:21:39;;;;;;;1.73;0.60;;;;;;;7.92;63.01;98725.81;10218334;28;20129;-61
2022/04/08 05:26:40;;;;;;;2.75;0.68;;;;;;;8.02;63.36;98712.56;10220552;28;20069;-62
2022/04/08 05:31:42;;;;;;;1.63;0.40;;;;;;;7.82;63.84;98709.13;10216184;28;20059;-63
2022/04/08 05:36:43;;;;;;;2.88;0.73;;;;;;;7.71;63.28;98697.69;10220764;28;20055;-63
2022/04/08 05:41:44;;;;;;;2.53;0.57;;;;;;;7.82;64.33;98698.50;10219361;28;20055;-62
2022/04/08 05:46:46;;;;;;;2.05;0.55;;;;;;;7.95;63.40;98688.44;10222799;28;20087;-61
2022/04/08 05:51:47;;;;;;;2.00;0.93;;;;;;;8.02;62.83;98696.66;10223391;28;21952;-62
2022/04/08 05:56:48;;;;;;;3.33;1.00;;;;;;;8.08;63.39;98699.53;10217029;28;21442;-61
2022/04/08 06:01:50;;;;;;;5.25;1.15;;;;;;;8.23;63.48;98712.34;10215388;28;20304;-62
2022/04/08 06:06:54;;;;;;;4.47;1.33;;;;;;;8.29;63.72;98707.25;10216439;28;20066;-62
2022/04/08 06:11:55;;;;;;;3.67;1.60;;;;;;;8.18;63.56;98703.97;10215859;28;20054;-61
2022/04/08 06:16:57;;;;;;;3.70;1.17;;;;;;;8.16;64.31;98700.63;10215120;28;20311;-61
2022/04/08 06:21:59;;;;;;;2.60;0.80;;;;;;;8.24;63.62;98713.97;10212478;28;20134;-61
2022/04/08 06:27:00;;;;;;;1.45;1.00;;;;;;;8.46;63.51;98703.03;10212795;28;20043;-63
2022/04/08 06:32:02;;;;;;;3.20;0.82;;;;;;;8.66;63.29;98681.69;10211641;28;20047;-60
2022/04/08 06:37:03;;;;;;;4.95;1.08;;;;;;;8.82;62.06;98675.72;10214464;28;20737;-61
2022/04/08 06:42:05;;;;;;;2.92;1.08;;;;;;;8.77;62.02;98652.28;10214820;28;20316;-60
2022/04/08 06:47:06;;;;;;;3.88;1.65;;;;;;;8.95;61.56;98670.88;10212264;28;20673;-61
2022/04/08 06:52:08;;;;;;;2.45;1.27;;;;;;;9.03;61.64;98664.81;10214695;28;20143;-61
2022/04/08 06:57:09;;;;;;;7.35;1.30;;;;;;;9.19;60.76;98672.91;10214445;28;20115;-61
2022/04/08 07:02:11;;;;;;;5.68;1.50;;;;;;;9.07;60.68;98657.34;10218413;28;20133;-62
2022/04/08 07:07:13;;;;;;;6.72;1.83;;;;;;;9.08;60.99;98654.53;10219423;28;20053;-60
2022/04/08 07:12:15;;;;;;;6.20;1.63;;;;;;;8.96;61.03;98646.00;10218210;28;20059;-60
2022/04/08 07:17:16;;;;;;;7.38;1.52;;;;;;;8.79;61.12;98631.75;10219593;28;20061;-61
2022/04/08 07:22:37;;;;;;;4.57;1.83;;;;;;;8.83;61.61;98635.75;10216066;28;20055;-62
2022/04/08 07:27:47;;;;;;;7.07;1.65;;;;;;;8.96;61.00;98634.53;10218803;28;20051;-62
2022/04/08 07:32:54;;;;;;;9.25;2.25;;;;;;;8.78;60.22;98627.44;10213183;28;20054;-61
2022/04/08 07:37:56;;;;;;;6.22;2.75;;;;;;;8.72;60.78;98622.75;10214792;28;20692;-62
2022/04/08 07:42:58;;;;;;;6.53;2.20;;;;;;;8.64;61.03;98627.97;10218578;28;20070;-61
2022/04/08 07:48:00;;;;;;;6.68;2.10;;;;;;;8.95;60.72;98616.97;10216302;28;20721;-62
2022/04/08 07:53:01;;;;;;;10.32;3.03;;;;;;;9.12;59.82;98618.75;10214419;28;20050;-61
2022/04/08 07:58:04;;;;;;;8.90;2.17;;;;;;;9.29;59.59;98614.41;10209639;28;20050;-63
2022/04/08 08:03:05;;;;;;;9.27;2.40;;;;;;;9.46;58.92;98607.38;10214407;28;20106;-62
2022/04/08 08:08:07;;;;;;;7.78;2.00;;;;;;;9.55;58.48;98611.75;10216628;28;20058;-61
2022/04/08 08:13:08;;;;;;;9.25;3.38;;;;;;;9.23;59.60;98614.19;10217105;28;20086;-61
2022/04/08 08:18:10;;;;;;;8.38;2.90;;;;;;;9.12;60.28;98618.75;10217637;28;20047;-62
2022/04/08 08:23:11;;;;;;;10.10;2.20;;;;;;;8.97;60.10;98618.47;10216552;28;20717;-62
2022/04/08 08:28:14;;;;;;;6.95;2.95;;;;;;;8.97;60.95;98618.47;10218250;28;20057;-63
2022/04/08 08:33:15;;;;;;;5.68;2.67;;;;;;;8.89;60.98;98597.19;10213292;28;20055;-60
2022/04/08 08:38:19;;;;;;;9.40;2.97;;;;;;;8.93;63.82;98613.63;10215962;28;20058;-61
2022/04/08 08:43:20;;;;;;;8.93;2.13;;;;;;;9.10;63.82;98607.47;10220237;28;20081;-63
2022/04/08 08:48:22;;;;;;;10.55;2.95;;;;;;;9.20;65.18;98608.22;10221132;28;20752;-62
2022/04/08 08:53:24;;;;;;;7.18;2.60;;;;;;;9.19;65.13;98595.91;10222230;28;20051;-63
2022/04/08 08:58:29;;;;;;;6.75;2.55;;;;;;;9.29;64.21;98602.94;10220925;28;20055;-62
2022/04/08 09:03:30;;;;;;;9.93;2.65;;;;;;;9.09;65.20;98589.88;10224176;28;20177;-61
2022/04/08 09:08:33;;;;;;;11.32;2.63;;;;;;;9.13;67.33;98567.34;10220451;28;20057;-62
2022/04/08 09:13:46;;;;;;;8.93;2.78;;;;;;;9.39;66.51;98574.47;10220144;28;20125;-62
2022/04/08 09:18:48;;;;;;;9.52;3.58;;;;;;;9.41;66.87;98569.00;10220664;28;20066;-60
2022/04/08 09:23:50;;;;;;;8.60;3.08;;;;;;;9.41;65.89;98559.19;10216548;28;20142;-62
2022/04/08 09:28:55;;;;;;;10.70;2.92;;;;;;;9.36;66.00;98545.56;10217569;28;20063;-61
2022/04/08 09:33:56;;;;;;;;;;;;;;;9.17;67.59;98541.31;10219371;28;20191;-61
2022/04/08 09:38:59;;;;;;;5.80;3.13;;;;;;;8.73;69.82;98525.41;10221717;28;20561;-60
2022/04/08 09:44:00;;;;;;;8.25;2.67;;;;;;;8.81;73.20;98518.34;10218941;28;20138;-61
2022/04/08 09:49:06;;;;;;;8.07;2.47;;;;;;;9.10;71.89;98511.91;10217366;28;20134;-62
2022/04/08 09:54:15;;;;;;;6.22;3.22;;;;;;;9.11;71.74;98508.28;10218895;28;20090;-62
2022/04/08 09:59:21;;;;;;;6.18;2.40;;;;;;;8.90;71.10;98511.25;10217970;28;20065;-62
2022/04/08 10:04:44;;;;;;;6.95;2.75;;;;;;;8.98;74.29;98497.25;10218834;28;20485;-62
2022/04/08 10:09:58;;;;;;;5.78;2.20;;;;;;;8.96;71.75;98485.94;10219445;28;20069;-60
2022/04/08 10:15:26;;;;;;;6.40;2.90;;;;;;;9.11;73.03;98481.72;10215214;28;20043;-62
2022/04/08 10:20:28;;;;;;;7.90;2.90;;;;;;;9.19;72.07;98454.38;10213708;28;20055;-61
2022/04/08 10:25:36;;;;;;;7.57;2.40;;;;;;;9.36;73.73;98449.97;10221193;28;22267;-61
2022/04/08 10:30:45;;;;;;;6.55;2.45;;;;;;;9.26;71.88;98443.94;10229898;28;20047;-61
2022/04/08 10:36:01;;;;;;;8.38;3.05;;;;;;;9.03;69.75;98433.91;10217543;28;20066;-62
2022/04/08 10:41:08;;;;;;;6.03;3.20;;;;;;;8.95;71.83;98431.22;10216839;28;20165;-62
2022/04/08 10:46:10;;;;;;;4.68;2.63;;;;;;;9.01;73.14;98434.06;10216085;28;20057;-61
2022/04/08 10:51:14;;;;;;;3.95;1.70;;;;;;;9.06;70.68;98422.13;10220589;28;20066;-60
2022/04/08 10:56:17;;;;;;;7.78;1.80;;;;;;;8.97;72.12;98418.59;10235175;28;20051;-61
2022/04/08 11:01:24;;;;;;;3.92;2.00;;;;;;;8.98;71.68;98417.63;10231350;28;20687;-61
2022/04/08 11:06:28;;;;;;;6.03;1.90;;;;;;;8.84;70.86;98422.53;10219116;28;20058;-61
2022/04/08 11:11:31;;;;;;;3.92;1.23;;;;;;;8.62;70.46;98420.41;10218840;28;20513;-61
2022/04/08 11:16:35;;;;;;;1.83;0.98;;;;;;;8.59;70.35;98407.47;10219796;28;20050;-61
2022/04/08 11:21:38;;;;;;;2.60;1.30;;;;;;;8.66;71.29;98408.47;10213417;28;20111;-62
2022/04/08 11:26:48;;;;;;;5.70;1.45;;;;;;;8.47;70.76;98425.44;10219362;28;20062;-61
2022/04/08 11:31:52;;;;;;;2.72;1.10;;;;;;;8.43;73.06;98416.91;10252456;28;20066;-61
2022/04/08 11:36:57;;;;;;;4.60;1.27;;;;;;;8.40;72.38;98400.50;10245992;28;20379;-62
2022/04/08 11:42:04;;;;;;;3.60;1.60;;;;;;;8.54;74.32;98388.50;10218698;28;20046;-62
2022/04/08 11:47:07;;;;;;;3.70;1.67;;;;;;;8.48;71.29;98382.84;10211097;28;20166;-62
2022/04/08 11:52:09;;;;;;;4.40;1.58;;;;;;;8.19;72.79;98392.88;10213053;28;20136;-61
2022/04/08 11:57:10;;;;;;;4.50;1.30;;;;;;;8.12;74.52;98360.84;10214825;28;20640;-62
2022/04/08 12:02:11;;;;;;;3.10;1.48;;;;;;;8.25;75.75;98366.56;10214535;28;20065;-61
2022/04/08 12:07:24;;;;;;;3.63;0.80;;;;;;;8.15;75.09;98360.53;10211302;28;20075;-61
2022/04/08 12:12:28;;;;;;;2.90;1.13;;;;;;;8.29;75.97;98341.44;10212242;28;20418;-61
2022/04/08 12:17:37;;;;;;;3.35;0.70;;;;;;;8.22;75.33;98344.88;10221769;28;20051;-60
2022/04/08 12:22:38;;;;;;;1.95;0.50;;;;;;;8.47;74.31;98341.41;10218589;28;20208;-61
2022/04/08 12:27:40;;;;;;;2.88;0.40;;;;;;;8.46;74.08;98345.03;10220150;28;20580;-62
2022/04/08 12:33:02;;;;;;;1.77;0.73;;;;;;;8.35;73.33;98328.53;10223624;28;20051;-62
2022/04/08 12:38:04;;;;;;;3.95;0.82;;;;;;;8.50;73.11;98337.63;10220246;28;20055;-61
2022/04/08 12:43:06;;;;;;;0.95;0.40;;;;;;;8.47;73.65;98330.81;10222245;28;20059;-61
2022/04/08 12:48:08;;;;;;;1.25;0.70;;;;;;;8.49;72.86;98320.84;10222336;28;20058;-61
2022/04/08 12:53:10;;;;;;;1.10;0.80;;;;;;;8.01;74.53;98322.19;10219387;28;20106;-60
2022/04/08 12:58:11;;;;;;;1.13;0.45;;;;;;;8.09;72.97;98305.50;10221034;28;20416;-62
2022/04/08 13:03:13;;;;;;;1.25;0.40;;;;;;;7.70;75.70;98306.72;10226249;28;20047;-62
2022/04/08 13:08:14;;;;;;;2.15;0.50;;;;;;;8.02;74.89;98301.84;10222071;28;20063;-61
2022/04/08 13:13:16;;;;;;;2.28;0.70;;;;;;;8.17;75.70;98292.31;10226185;28;20118;-61
2022/04/08 13:18:18;;;;;;;1.25;0.45;;;;;;;8.21;74.47;98280.44;10224315;28;20051;-62
2022/04/08 13:23:19;;;;;;;1.60;0.38;;;;;;;8.13;74.48;98267.94;10228144;28;20534;-61
2022/04/08 13:28:20;;;;;;;0.40;0.20;;;;;;;8.12;72.64;98266.28;10219921;28;20099;-62
2022/04/08 13:33:22;;;;;;;1.15;0.52;;;;;;;7.98;74.51;98232.41;10220017;28;20719;-62
2022/04/08 13:38:25;;;;;;;0.63;0.20;;;;;;;8.04;72.65;98229.13;10216510;28;20598;-60
2022/04/08 13:43:26;;;;;;;0.45;0.15;;;;;;;8.11;71.15;98256.66;10219010;28;20043;-60
2022/04/08 13:48:28;;;;;;;0.80;0.30;;;;;;;8.03;72.35;98251.34;10219507;28;20126;-61
2022/04/08 13:53:30;;;;;;;0.90;0.40;;;;;;;7.94;71.31;98252.25;10218222;28;20134;-60
2022/04/08 13:58:31;;;;;;;0.98;0.45;;;;;;;7.90;71.76;98248.28;10221176;28;20055;-62
2022/04/08 14:03:33;;;;;;;1.08;0.13;;;;;;;7.68;70.53;98252.25;10217681;28;20158;-62
2022/04/08 14:08:34;;;;;;;1.17;0.10;;;;;;;7.61;70.55;98239.63;10219421;28;20054;-62
2022/04/08 14:13:36;;;;;;;1.02;0.32;;;;;;;7.78;70.09;98259.09;10217453;28;20145;-61
2022/04/08 14:18:37;;;;;;;1.05;0.28;;;;;;;7.79;69.39;98239.59;10219411;28;20150;-62
2022/04/08 14:23:40;;;;;;;0.50;0.22;;;;;;;7.81;69.32;98235.94;10222385;28;20055;-62
2022/04/08 14:28:42;;;;;;;1.73;0.25;;;;;;;7.70;70.59;98223.78;10218424;28;20077;-62
2022/04/08 14:33:43;;;;;;;0.95;0.32;;;;;;;7.66;70.98;98231.22;10220091;28;20058;-62
2022/04/08 14:38:44;;;;;;;1.13;0.40;;;;;;;7.61;70.55;98217.59;10216067;28;20238;-62
2022/04/08 14:43:46;;;;;;;0.57;0.28;;;;;;;7.49;72.28;98210.88;10216122;28;20049;-61
2022/04/08 14:48:53;;;;;;;0.25;0.22;;;;;;;7.43;70.73;98229.06;10215092;28;20041;-61
2022/04/08 14:53:55;;;;;;;0.40;0.20;;;;;;;7.00;71.14;98180.38;10216345;28;20133;-61
2022/04/08 14:58:56;;;;;;;1.25;0.60;;;;;;;7.19;72.80;98228.81;10213802;28;20089;-61
2022/04/08 15:03:58;;;;;;;0.68;0.30;;;;;;;7.17;72.16;98249.31;10214964;28;20051;-61
2022/04/08 15:08:59;;;;;;;0.30;0.20;;;;;;;7.07;72.14;98229.06;10214833;28;20111;-60
2022/04/08 15:14:01;;;;;;;1.75;0.50;;;;;;;7.03;72.00;98221.59;10215635;28;20706;-62
2022/04/08 15:19:02;;;;;;;0.30;0.20;;;;;;;7.10;72.24;98224.44;10219482;28;20053;-61
2022/04/08 15:24:04;;;;;;;0.30;0.10;;;;;;;7.07;72.14;98239.66;10224992;28;20126;-64
2022/04/08 15:29:05;;;;;;;3.03;1.50;;;;;;;6.89;72.55;98238.78;10231252;28;20065;-63
2022/04/08 15:34:06;;;;;;;1.92;0.40;;;;;;;6.90;73.71;98243.97;10229782;28;20073;-62
2022/04/08 15:39:08;;;;;;;0.30;0.10;;;;;;;6.97;73.23;98230.94;10229758;28;20078;-62
2022/04/08 15:44:09;;;;;;;2.55;1.48;;;;;;;7.02;72.31;98259.59;10231935;28;20596;-61
2022/04/08 15:49:11;;;;;;;1.35;0.50;;;;;;;6.96;72.71;98257.56;10233343;28;20075;-62
2022/04/08 15:54:12;;;;;;;1.25;0.40;;;;;;;6.84;72.70;98251.63;10243522;28;20182;-60
2022/04/08 15:59:13;;;;;;;2.58;1.48;;;;;;;6.72;73.11;98241.28;10239813;28;20198;-65
2022/04/08 16:04:15;;;;;;;2.38;1.45;;;;;;;6.77;74.06;98256.69;10240441;28;20054;-63
2022/04/08 16:09:17;;;;;;;3.65;2.40;;;;;;;6.74;74.17;98243.78;10246356;28;20129;-62
2022/04/08 16:14:18;;;;;;;2.35;1.30;;;;;;;6.77;72.70;98253.19;10244837;28;20050;-62
2022/04/08 16:19:20;;;;;;;2.13;1.60;;;;;;;6.73;73.92;98274.66;10244584;28;20146;-63
2022/04/08 16:24:21;;;;;;;1.27;0.93;;;;;;;6.73;74.43;98281.78;10241478;28;20357;-63
2022/04/08 16:29:23;;;;;;;2.10;1.45;;;;;;;6.75;73.67;98297.50;10241494;28;20054;-63
2022/04/08 16:34:24;;;;;;;1.83;1.50;;;;;;;6.77;73.69;98274.38;10243962;28;20780;-64
2022/04/08 16:39:26;;;;;;;1.60;1.10;;;;;;;6.71;73.04;98281.06;10248045;28;20105;-62
2022/04/08 16:44:27;;;;;;;1.02;0.82;;;;;;;6.74;72.86;98283.44;10243745;28;20065;-61
2022/04/08 16:49:28;;;;;;;1.40;1.23;;;;;;;6.69;73.15;98278.56;10245228;28;20055;-62
2022/04/08 16:54:30;;;;;;;1.45;0.70;;;;;;;6.64;73.44;98286.13;10246577;28;20138;-62
2022/04/08 16:59:32;;;;;;;0.90;0.40;;;;;;;6.58;72.52;98291.19;10244753;28;20070;-63
2022/04/08 17:04:33;;;;;;;2.33;0.55;;;;;;;6.46;72.27;98272.84;10240139;28;20051;-63
2022/04/08 17:09:35;;;;;;;1.25;0.60;;;;;;;6.45;73.29;98270.34;10233992;28;20537;-63
2022/04/08 17:14:36;;;;;;;1.45;0.40;;;;;;;6.39;72.81;98265.66;10235389;28;20070;-61
2022/04/08 17:19:38;;;;;;;0.70;0.65;;;;;;;6.32;72.79;98271.53;10235251;28;20604;-62
2022/04/08 17:24:39;;;;;;;2.28;1.27;;;;;;;6.21;73.72;98261.13;10240161;28;20089;-63
2022/04/08 17:29:41;;;;;;;0.95;0.50;;;;;;;6.26;73.96;98282.66;10235620;28;20169;-63
2022/04/08 17:34:42;;;;;;;0.80;0.55;;;;;;;6.18;74.13;98271.97;10239154;28;20293;-63
2022/04/08 17:39:44;;;;;;;0.75;0.70;;;;;;;6.14;74.80;98278.50;10229664;28;20988;-62
2022/04/08 17:44:45;;;;;;;1.38;1.05;;;;;;;5.97;74.75;98267.72;10231145;28;20059;-64
2022/04/08 17:49:47;;;;;;;1.55;0.80;;;;;;;6.07;75.70;98272.16;10231292;28;20043;-61
2022/04/08 17:54:57;;;;;;;0.90;0.60;;;;;;;6.04;75.52;98259.25;10245849;28;20059;-63
2022/04/08 17:59:59;;;;;;;1.42;1.13;;;;;;;5.99;75.89;98271.06;10238943;28;20047;-63
2022/04/08 18:05:01;;;;;;;2.15;1.70;;;;;;;6.03;76.33;98255.75;10232683;28;20075;-62
2022/04/08 18:10:03;;;;;;;1.20;0.95;;;;;;;6.00;76.83;98254.25;10233156;28;20053;-61
2022/04/08 18:15:05;;;;;;;3.75;2.58;;;;;;;5.96;76.81;98254.63;10228924;28;20051;-62
2022/04/08 18:20:07;;;;;;;2.53;2.33;;;;;;;5.91;76.50;98252.41;10246419;28;20067;-62
2022/04/08 18:25:10;;;;;;;2.10;1.63;;;;;;;5.94;76.58;98257.41;10228374;28;20129;-63
2022/04/08 18:30:11;;;;;;;2.47;1.40;;;;;;;5.95;77.14;98248.50;10234468;28;20198;-63
2022/04/08 18:35:13;;;;;;;2.33;1.90;;;;;;;5.97;77.32;98248.41;10236096;28;20065;-64
2022/04/08 18:40:14;;;;;;;3.10;2.83;;;;;;;5.94;77.41;98236.28;10237801;28;20502;-65
2022/04/08 18:45:16;;;;;;;2.08;1.90;;;;;;;5.94;76.93;98240.75;10228802;28;20094;-63
2022/04/08 18:50:18;;;;;;;1.77;1.17;;;;;;;5.97;77.36;98246.59;10233203;28;20114;-62
2022/04/08 18:55:19;;;;;;;2.10;1.90;;;;;;;5.99;77.10;98235.88;10230463;28;20138;-64
2022/04/08 19:00:21;;;;;;;2.38;2.17;;;;;;;6.11;76.77;98249.75;10234876;28;20082;-61
2022/04/08 19:05:23;;;;;;;2.28;2.08;;;;;;;6.04;76.98;98248.69;10232565;28;20054;-62
2022/04/08 19:10:25;;;;;;;3.97;2.80;;;;;;;6.03;77.64;98245.19;10230749;28;20181;-63
2022/04/08 19:15:28;;;;;;;2.78;2.53;;;;;;;6.12;77.76;98238.22;10233361;28;20059;-62
2022/04/08 19:20:29;;;;;;;4.05;2.22;;;;;;;6.06;77.12;98213.19;10229721;28;20775;-63
2022/04/08 19:25:31;;;;;;;3.45;2.97;;;;;;;6.09;77.35;98235.84;10231815;28;20051;-62
2022/04/08 19:30:37;;;;;;;2.58;2.38;;;;;;;6.06;77.33;98244.91;10228206;28;20146;-63
2022/04/08 19:35:38;;;;;;;2.20;2.00;;;;;;;6.04;77.58;98220.44;10229642;28;20154;-64
2022/04/08 19:40:40;;;;;;;2.60;2.40;;;;;;;6.02;77.64;98222.41;10236205;28;20541;-63
2022/04/08 19:45:41;;;;;;;2.40;2.20;;;;;;;6.11;77.88;98244.47;10241815;28;20133;-62
2022/04/08 19:50:42;;;;;;;2.30;2.05;;;;;;;6.18;77.34;98254.34;10232139;28;20061;-65
2022/04/08 19:55:44;;;;;;;2.33;2.08;;;;;;;6.02;77.76;98232.97;10226812;28;20073;-63
2022/04/08 20:00:45;;;;;;;3.35;3.05;;;;;;;6.05;78.12;98208.91;10230759;28;20070;-64
2022/04/08 20:05:47;;;;;;;3.22;2.92;;;;;;;6.10;77.24;98216.41;10228400;28;20113;-64
2022/04/08 20:10:48;;;;;;;4.03;3.50;;;;;;;6.08;77.62;98248.25;10227338;28;20050;-64
2022/04/08 20:15:50;;;;;;;4.35;3.95;;;;;;;6.05;77.43;98247.69;10230416;28;20423;-63
2022/04/08 20:20:52;;;;;;;4.82;4.32;;;;;;;5.78;79.44;98267.72;10225116;28;20057;-62
2022/04/08 20:25:53;;;;;;;5.05;3.58;;;;;;;5.89;78.36;98287.88;10234113;28;20069;-63
2022/04/08 20:30:55;;;;;;;4.53;4.13;;;;;;;6.01;78.83;98277.03;10228809;28;20065;-64
2022/04/08 20:35:59;;;;;;;3.47;3.13;;;;;;;5.94;77.66;98283.81;10234300;28;20438;-63
2022/04/08 20:41:00;;;;;;;3.60;3.30;;;;;;;5.91;79.63;98280.63;10252765;28;20113;-64
2022/04/08 20:46:02;;;;;;;3.65;3.35;;;;;;;6.06;78.81;98291.63;10240612;28;20057;-65
2022/04/08 20:51:05;;;;;;;2.92;2.72;;;;;;;6.09;78.84;98286.06;10233647;28;20562;-64
2022/04/08 20:56:07;;;;;;;3.25;2.95;;;;;;;6.07;78.00;98290.66;10229271;28;20534;-64
2022/04/08 21:01:09;;;;;;;2.53;2.33;;;;;;;6.04;78.41;98293.59;10231600;28;20064;-64
2022/04/08 21:06:10;;;;;;;4.07;2.47;;;;;;;5.97;78.34;98257.16;10246412;28;20565;-63
2022/04/08 21:11:12;;;;;;;2.60;0.95;;;;;;;5.83;76.13;98239.09;10227609;28;20664;-63
2022/04/08 21:16:13;;;;;;;2.45;1.33;;;;;;;5.87;76.21;98245.78;10227954;28;20047;-64
2022/04/08 21:21:15;;;;;;;2.10;1.15;;;;;;;5.80;75.14;98282.47;10241144;28;20055;-63
2022/04/08 21:26:16;;;;;;;2.15;1.30;;;;;;;5.89;75.95;98330.94;10235480;28;20824;-64
2022/04/08 21:31:17;;;;;;;1.80;1.30;;;;;;;5.90;77.50;98352.91;10234604;28;20191;-64
2022/04/08 21:36:20;;;;;;;2.97;1.90;;;;;;;5.94;77.36;98362.22;10239104;28;20042;-64
2022/04/08 21:41:21;;;;;;;2.58;1.50;;;;;;;5.69;78.81;98375.03;10229508;28;20059;-64
2022/04/08 21:46:23;;;;;;;3.17;1.55;;;;;;;5.82;78.52;98370.31;10232875;28;20051;-63
2022/04/08 21:51:24;;;;;;;3.20;1.58;;;;;;;5.81;78.38;98357.22;10240392;28;20059;-63
2022/04/08 21:56:25;;;;;;;2.75;1.45;;;;;;;5.89;76.49;98362.63;10231093;28;20743;-64
2022/04/08 22:01:27;;;;;;;1.60;1.27;;;;;;;5.77;76.15;98364.59;10229761;28;20059;-65
2022/04/08 22:06:30;;;;;;;2.60;1.73;;;;;;;5.85;76.55;98382.38;10231329;28;20618;-63
2022/04/08 22:11:32;;;;;;;2.50;1.83;;;;;;;6.01;77.41;98406.44;10227721;28;20189;-62
2022/04/08 22:16:34;;;;;;;2.28;1.80;;;;;;;6.11;76.94;98405.59;10233974;28;20190;-65
2022/04/08 22:21:35;;;;;;;2.30;2.10;;;;;;;6.16;77.29;98414.78;10232179;28;20081;-63
2022/04/08 22:26:37;;;;;;;2.97;2.08;;;;;;;6.21;77.76;98417.00;10233283;28;20047;-62
2022/04/08 22:31:38;;;;;;;3.05;2.70;;;;;;;6.29;77.24;98411.00;10223226;28;20057;-62
2022/04/08 22:36:39;;;;;;;3.97;2.55;;;;;;;6.32;77.38;98405.44;10230668;28;20703;-62
2022/04/08 22:41:41;;;;;;;2.22;2.03;;;;;;;6.37;77.56;98416.44;10232403;28;20058;-62
2022/04/08 22:46:42;;;;;;;3.30;3.00;;;;;;;6.49;77.13;98417.94;10229673;28;20122;-62
2022/04/08 22:51:44;;;;;;;4.03;3.63;;;;;;;6.32;77.90;98429.22;10228421;28;20554;-62
2022/04/08 22:56:46;;;;;;;5.93;4.18;;;;;;;6.32;77.28;98456.50;10233492;28;20664;-63
2022/04/08 23:01:48;;;;;;;4.40;3.63;;;;;;;6.26;77.79;98465.00;10232066;28;20138;-64
2022/04/08 23:06:50;;;;;;;5.60;4.38;;;;;;;6.15;77.37;98449.25;10237799;28;20729;-62
2022/04/08 23:11:51;;;;;;;4.20;3.70;;;;;;;6.11;76.57;98503.34;10231306;28;20421;-62
2022/04/08 23:16:53;;;;;;;5.65;4.20;;;;;;;5.78;77.68;98505.34;10227362;28;20105;-63
2022/04/08 23:21:55;;;;;;;3.95;3.55;;;;;;;5.52;78.76;98500.56;10232673;28;20059;-62
2022/04/08 23:26:57;;;;;;;4.75;4.28;;;;;;;5.52;79.56;98531.41;10233789;28;20046;-62
2022/04/08 23:31:58;;;;;;;6.03;4.28;;;;;;;5.73;79.76;98544.53;10232835;28;20138;-63
2022/04/08 23:36:59;;;;;;;6.18;4.95;;;;;;;5.69;78.98;98567.75;10230437;28;21157;-63
2022/04/08 23:42:01;;;;;;;5.68;5.05;;;;;;;5.82;79.32;98565.69;10230922;28;20057;-62
2022/04/08 23:47:02;;;;;;;5.88;4.97;;;;;;;5.78;79.41;98595.13;10236078;28;20059;-62